Time;durP1;ratioP1;P1;durP2;ratioP2;P2;SDS_P1;SDS_P2;PMS_P1;PMS_P2;Temp;Humidity;BMP_temperature;BMP_pressure;BME280_temperature;BME280_humidity;BME280_pressure;Samples;Min_cycle;Max_cycle;Signal;HPM_P1;HPM_P2
2022/01/29 00:01:09;;;;;;;18.58;4.60;;;6.90;99.90;;;;;;5019048;28;20037;-82
2022/01/29 00:03:36;;;;;;;16.10;5.18;;;7.40;99.90;;;;;;5010328;28;20046;-82
2022/01/29 00:06:02;;;;;;;20.90;4.88;;;6.90;99.90;;;;;;4994974;28;20060;-81
2022/01/29 00:08:28;;;;;;;17.90;4.57;;;6.90;99.90;;;;;;5038850;28;20140;-82
2022/01/29 00:11:01;;;;;;;18.20;4.78;;;7.30;99.90;;;;;;5010718;28;20562;-82
2022/01/29 00:13:26;;;;;;;15.50;5.20;;;7.40;99.90;;;;;;5022310;28;20869;-82
2022/01/29 00:15:52;;;;;;;16.45;5.07;;;6.80;99.90;;;;;;5010204;28;20207;-83
2022/01/29 00:18:18;;;;;;;16.70;4.53;;;6.90;99.90;;;;;;5004611;28;20049;-82
2022/01/29 00:20:44;;;;;;;13.43;4.47;;;6.90;99.90;;;;;;5004779;28;20123;-82
2022/01/29 00:23:10;;;;;;;19.98;5.07;;;6.90;99.90;;;;;;4995012;28;20239;-82
2022/01/29 00:25:35;;;;;;;17.90;4.57;;;6.90;99.90;;;;;;4994956;28;20049;-82
2022/01/29 00:28:01;;;;;;;16.30;4.15;;;6.90;99.90;;;;;;5026047;28;20099;-82
2022/01/29 00:30:36;;;;;;;25.23;5.85;;;7.10;99.90;;;;;;5011335;28;20506;-82
2022/01/29 00:33:01;;;;;;;20.13;5.65;;;6.90;99.90;;;;;;5011031;28;20207;-82
2022/01/29 00:35:27;;;;;;;16.65;4.75;;;6.90;99.90;;;;;;5011414;28;20496;-82
2022/01/29 00:37:53;;;;;;;15.07;4.70;;;6.90;99.90;;;;;;5010026;28;20058;-82
2022/01/29 00:40:21;;;;;;;15.95;4.47;;;6.90;99.90;;;;;;5011471;28;20077;-82
2022/01/29 00:42:46;;;;;;;19.15;4.63;;;6.90;99.90;;;;;;5005200;28;20550;-81
2022/01/29 00:45:12;;;;;;;19.80;4.97;;;6.90;99.90;;;;;;5042343;28;20125;-82
2022/01/29 00:47:38;;;;;;;21.73;4.68;;;6.90;99.90;;;;;;5004852;28;20053;-82
2022/01/29 00:50:04;;;;;;;16.85;4.60;;;6.90;99.90;;;;;;5003499;28;20132;-82
2022/01/29 00:52:30;;;;;;;24.00;5.40;;;6.90;99.90;;;;;;5010124;28;20045;-82
2022/01/29 00:54:55;;;;;;;17.80;5.07;;;6.90;99.90;;;;;;5041304;28;20079;-82
2022/01/29 00:57:21;;;;;;;17.17;4.95;;;6.90;99.90;;;;;;5024580;28;20045;-82
2022/01/29 00:59:47;;;;;;;17.15;5.30;;;6.90;99.90;;;;;;5030986;28;20060;-82
2022/01/29 01:02:13;;;;;;;17.77;5.13;;;8.10;99.90;;;;;;5006215;28;20041;-82
2022/01/29 01:04:39;;;;;;;15.98;4.97;;;6.90;99.90;;;;;;4997727;28;20076;-82
2022/01/29 01:07:07;;;;;;;16.42;4.68;;;6.90;99.90;;;;;;5029901;28;20139;-82
2022/01/29 01:09:33;;;;;;;16.33;5.68;;;7.30;99.90;;;;;;5007947;28;20062;-82
2022/01/29 01:11:59;;;;;;;23.40;6.75;;;6.90;99.90;;;;;;5040357;28;20049;-83
2022/01/29 01:14:25;;;;;;;19.42;5.45;;;6.90;99.90;;;;;;5029297;28;20491;-82
2022/01/29 01:16:50;;;;;;;21.65;5.93;;;6.90;99.90;;;;;;5010460;28;20049;-82
2022/01/29 01:19:16;;;;;;;16.90;5.90;;;7.00;99.90;;;;;;5006466;28;20065;-82
2022/01/29 01:21:42;;;;;;;20.33;6.30;;;7.50;99.90;;;;;;5012167;28;20041;-82
2022/01/29 01:24:08;;;;;;;28.20;6.07;;;7.00;99.90;;;;;;5006277;28;20704;-81
2022/01/29 01:26:34;;;;;;;23.50;5.50;;;7.00;99.90;;;;;;5008289;28;20115;-82
2022/01/29 01:28:59;;;;;;;25.73;7.07;;;7.40;99.90;;;;;;5023815;28;20042;-82
2022/01/29 01:31:25;;;;;;;24.23;6.93;;;7.20;99.90;;;;;;5040551;28;20042;-82
2022/01/29 01:33:51;;;;;;;23.58;6.45;;;7.10;99.90;;;;;;4991712;28;20132;-82
2022/01/29 01:36:21;;;;;;;20.08;6.53;;;7.60;99.90;;;;;;5006029;28;20096;-82
2022/01/29 01:38:52;;;;;;;23.73;6.85;;;7.10;99.90;;;;;;4999141;28;20064;-83
2022/01/29 01:41:23;;;;;;;19.35;6.18;;;7.10;99.90;;;;;;5028890;28;20042;-83
2022/01/29 01:43:49;;;;;;;21.77;6.32;;;7.20;99.90;;;;;;5044038;28;20053;-82
2022/01/29 01:46:15;;;;;;;27.15;7.20;;;7.20;99.90;;;;;;5011514;28;20439;-83
2022/01/29 01:48:41;;;;;;;20.42;7.00;;;7.20;99.90;;;;;;5034064;28;20081;-83
2022/01/29 01:51:07;;;;;;;22.80;6.03;;;7.20;99.90;;;;;;5009290;28;20077;-83
2022/01/29 01:53:33;;;;;;;22.70;6.38;;;7.20;99.90;;;;;;5023952;28;20113;-83
2022/01/29 01:56:02;;;;;;;15.55;5.97;;;7.20;99.90;;;;;;5013846;28;20080;-83
2022/01/29 01:58:28;;;;;;;32.30;6.85;;;7.20;99.90;;;;;;5022759;28;20056;-83
2022/01/29 02:00:53;;;;;;;21.98;5.90;;;7.20;99.90;;;;;;5013132;28;20041;-82
2022/01/29 02:03:19;;;;;;;15.02;5.45;;;7.10;99.90;;;;;;4987684;28;20054;-83
2022/01/29 02:05:46;;;;;;;23.48;6.25;;;7.20;99.90;;;;;;5011857;28;20045;-82
2022/01/29 02:08:14;;;;;;;25.10;7.13;;;7.70;99.90;;;;;;5008345;28;20129;-83
2022/01/29 02:10:39;;;;;;;26.00;6.68;;;7.20;99.90;;;;;;5045956;28;20408;-82
2022/01/29 02:13:06;;;;;;;29.70;7.20;;;7.20;99.90;;;;;;5012144;28;20046;-83
2022/01/29 02:15:32;;;;;;;22.35;7.15;;;7.20;99.90;;;;;;5020797;28;20053;-82
2022/01/29 02:17:59;;;;;;;22.42;7.68;;;7.20;99.90;;;;;;5054238;28;20041;-82
2022/01/29 02:20:28;;;;;;;29.38;7.72;;;7.20;99.90;;;;;;5012984;28;20104;-82
2022/01/29 02:22:55;;;;;;;24.08;7.07;;;7.20;99.90;;;;;;5022534;28;20061;-83
2022/01/29 02:25:35;;;;;;;26.63;7.18;;;6.70;99.90;;;;;;5022019;28;20127;-83
2022/01/29 02:28:08;;;;;;;24.52;6.88;;;7.20;99.90;;;;;;5040592;28;20060;-82
2022/01/29 02:30:35;;;;;;;21.83;7.18;;;7.20;99.90;;;;;;5038182;28;20127;-83
2022/01/29 02:33:05;;;;;;;25.20;7.22;;;7.20;99.90;;;;;;5011536;28;20137;-82
2022/01/29 02:35:32;;;;;;;23.13;7.45;;;7.20;99.90;;;;;;5045338;28;20046;-82
2022/01/29 02:37:58;;;;;;;23.48;8.45;;;7.20;99.90;;;;;;5037736;28;20509;-82
2022/01/29 02:40:25;;;;;;;24.27;9.02;;;;;;;;;;5028746;28;20053;-82
2022/01/29 02:42:53;;;;;;;25.42;7.55;;;7.20;99.90;;;;;;5013369;28;20044;-82
2022/01/29 02:45:20;;;;;;;28.80;7.65;;;7.20;99.90;;;;;;5012930;28;20108;-83
2022/01/29 02:47:47;;;;;;;24.30;7.60;;;7.20;99.90;;;;;;5014131;28;20522;-83
2022/01/29 02:50:13;;;;;;;27.50;7.28;;;7.30;99.90;;;;;;5021198;28;20049;-83
2022/01/29 02:52:39;;;;;;;23.13;7.35;;;7.30;99.90;;;;;;5038954;28;20075;-84
2022/01/29 02:55:06;;;;;;;23.27;8.30;;;8.00;99.90;;;;;;5012372;28;20077;-83
2022/01/29 02:57:32;;;;;;;27.23;8.23;;;7.30;99.90;;;;;;5013823;28;20057;-82
2022/01/29 03:00:00;;;;;;;23.88;7.85;;;7.30;99.90;;;;;;5005897;28;20077;-82
2022/01/29 03:02:27;;;;;;;26.33;8.00;;;7.30;99.90;;;;;;5023523;28;20046;-84
2022/01/29 03:04:55;;;;;;;29.88;8.55;;;7.30;99.90;;;;;;5022598;28;20045;-81
2022/01/29 03:07:20;;;;;;;27.17;8.63;;;7.30;99.90;;;;;;4993713;28;20112;-82
2022/01/29 03:09:46;;;;;;;22.38;8.63;;;8.10;99.90;;;;;;5004141;28;20053;-83
2022/01/29 03:12:12;;;;;;;26.42;8.85;;;7.40;99.90;;;;;;5012045;28;20042;-83
2022/01/29 03:14:38;;;;;;;23.83;8.07;;;7.40;99.90;;;;;;5007502;28;20487;-84
2022/01/29 03:17:04;;;;;;;27.33;9.15;;;7.40;99.90;;;;;;5020256;28;20376;-83
2022/01/29 03:19:30;;;;;;;21.13;8.38;;;7.40;99.90;;;;;;4994025;28;20097;-82
2022/01/29 03:21:55;;;;;;;32.95;9.18;;;7.30;99.90;;;;;;5044795;28;20037;-81
2022/01/29 03:24:21;;;;;;;21.65;8.65;;;7.50;99.90;;;;;;5002380;28;20073;-82
2022/01/29 03:26:47;;;;;;;26.70;8.90;;;6.50;99.90;;;;;;4996822;28;20404;-81
2022/01/29 03:29:13;;;;;;;25.25;9.35;;;7.40;99.90;;;;;;4994383;28;20044;-81
2022/01/29 03:31:38;;;;;;;30.20;9.52;;;7.40;99.90;;;;;;5028567;28;20041;-81
2022/01/29 03:34:04;;;;;;;29.38;9.98;;;7.40;99.90;;;;;;5010108;28;20041;-81
2022/01/29 03:36:30;;;;;;;27.73;9.02;;;7.40;99.90;;;;;;5012696;28;20046;-81
2022/01/29 03:38:56;;;;;;;23.05;10.05;;;7.40;99.90;;;;;;5037870;28;20566;-82
2022/01/29 03:41:21;;;;;;;27.88;10.90;;;7.50;99.90;;;;;;5022524;28;20129;-82
2022/01/29 03:43:51;;;;;;;21.02;9.18;;;7.50;99.90;;;;;;4996176;28;20049;-81
2022/01/29 03:46:16;;;;;;;23.60;9.20;;;7.50;99.90;;;;;;5029768;28;20122;-82
2022/01/29 03:48:42;;;;;;;27.42;9.85;;;7.50;99.90;;;;;;5004683;28;20053;-82
2022/01/29 03:51:08;;;;;;;23.75;9.35;;;7.50;99.90;;;;;;5019198;28;20076;-82
2022/01/29 03:53:34;;;;;;;29.48;11.10;;;7.40;99.90;;;;;;5005570;28;20049;-82
2022/01/29 03:55:59;;;;;;;26.50;11.25;;;7.40;99.90;;;;;;4996784;28;20072;-81
2022/01/29 03:58:25;;;;;;;25.85;10.57;;;7.80;99.90;;;;;;5021881;28;20046;-82
2022/01/29 04:00:51;;;;;;;25.25;10.40;;;7.40;99.90;;;;;;5038954;28;20137;-82
2022/01/29 04:03:17;;;;;;;28.73;10.52;;;7.50;99.90;;;;;;5023911;28;20041;-82
2022/01/29 04:05:44;;;;;;;28.42;10.35;;;7.50;99.90;;;;;;5006310;28;20046;-82
2022/01/29 04:08:16;;;;;;;26.45;10.95;;;7.50;99.90;;;;;;4991948;28;20056;-82
2022/01/29 04:10:42;;;;;;;30.23;11.15;;;7.50;99.90;;;;;;5022105;28;20057;-83
2022/01/29 04:13:12;;;;;;;23.80;10.88;;;7.50;99.90;;;;;;5020315;28;20061;-83
2022/01/29 04:15:38;;;;;;;26.10;11.25;;;7.50;99.90;;;;;;5021787;28;20052;-82
2022/01/29 04:18:04;;;;;;;28.40;11.23;;;7.60;99.90;;;;;;4988727;28;20042;-82
2022/01/29 04:20:30;;;;;;;27.67;10.07;;;7.60;99.90;;;;;;5021162;28;20038;-82
2022/01/29 04:22:56;;;;;;;27.55;10.85;;;7.60;99.90;;;;;;5020816;28;20053;-82
2022/01/29 04:25:23;;;;;;;25.15;10.52;;;7.70;99.90;;;;;;5020159;28;20056;-81
2022/01/29 04:27:49;;;;;;;22.63;10.23;;;7.60;99.90;;;;;;5021431;28;20048;-82
2022/01/29 04:30:27;;;;;;;26.20;11.02;;;7.60;99.90;;;;;;5003843;28;20049;-82
2022/01/29 04:32:58;;;;;;;24.30;10.73;;;7.70;99.90;;;;;;5009372;28;20056;-81
2022/01/29 04:35:24;;;;;;;25.88;10.70;;;7.60;99.90;;;;;;5026956;28;20049;-81
2022/01/29 04:37:50;;;;;;;28.65;10.48;;;7.70;99.90;;;;;;5009957;28;20105;-82
2022/01/29 04:40:17;;;;;;;24.52;11.60;;;7.80;99.90;;;;;;5022856;28;20038;-82
2022/01/29 04:42:42;;;;;;;27.73;11.15;;;8.50;99.90;;;;;;5006291;28;20081;-82
2022/01/29 04:45:09;;;;;;;21.23;10.73;;;7.70;99.90;;;;;;5008342;28;20597;-83
2022/01/29 04:47:34;;;;;;;27.10;9.75;;;7.60;99.90;;;;;;5015167;28;20058;-83
2022/01/29 04:50:00;;;;;;;23.13;9.65;;;7.60;99.90;;;;;;5000285;28;20399;-82
2022/01/29 04:52:26;;;;;;;24.38;10.48;;;7.60;99.90;;;;;;5041393;28;20121;-82
2022/01/29 04:54:51;;;;;;;23.33;9.95;;;7.60;99.90;;;;;;5010865;28;20053;-82
2022/01/29 04:57:17;;;;;;;26.30;10.23;;;7.60;99.90;;;;;;5015603;28;20053;-82
2022/01/29 04:59:43;;;;;;;25.23;10.48;;;7.60;99.90;;;;;;4999580;28;20096;-82
2022/01/29 05:02:08;;;;;;;27.05;10.88;;;7.60;99.90;;;;;;4999377;28;20098;-82
2022/01/29 05:04:34;;;;;;;23.85;10.30;;;7.60;99.90;;;;;;4998330;28;20400;-82
2022/01/29 05:07:00;;;;;;;20.80;10.55;;;7.60;99.90;;;;;;5017124;28;20049;-81
2022/01/29 05:09:25;;;;;;;28.23;11.68;;;7.60;99.90;;;;;;5009457;28;20380;-82
2022/01/29 05:11:53;;;;;;;26.25;10.60;;;7.60;99.90;;;;;;5026086;28;20156;-81
2022/01/29 05:15:07;;;;;;;26.48;11.68;;;7.60;99.90;;;;;;5008580;28;20045;-82
2022/01/29 05:26:50;;;;;;;26.73;12.32;;;7.70;99.90;;;;;;5021266;28;20053;-81
2022/01/29 05:28:06;;;;;;;25.40;10.88;;;7.70;99.90;;;;;;5056114;28;20450;-83
2022/01/29 05:30:32;;;;;;;28.38;11.13;;;7.70;99.90;;;;;;5022991;28;20057;-82
2022/01/29 05:32:57;;;;;;;20.40;10.65;;;7.70;99.90;;;;;;5006475;28;20050;-82
2022/01/29 05:35:23;;;;;;;22.33;10.57;;;7.80;99.90;;;;;;5022644;28;20156;-82
2022/01/29 05:37:51;;;;;;;21.95;9.80;;;7.80;99.90;;;;;;5022675;28;20570;-83
2022/01/29 05:40:18;;;;;;;18.92;9.77;;;7.80;99.90;;;;;;5013083;28;20076;-82
2022/01/29 05:42:44;;;;;;;27.70;10.23;;;7.80;99.90;;;;;;5037857;28;20088;-83
2022/01/29 05:45:16;;;;;;;22.02;10.10;;;7.80;99.90;;;;;;5007741;28;20049;-83
2022/01/29 05:47:42;;;;;;;23.00;9.85;;;7.80;99.90;;;;;;5024702;28;20128;-83
2022/01/29 05:50:08;;;;;;;18.45;9.98;;;7.30;99.90;;;;;;5025169;28;20132;-83
2022/01/29 05:52:34;;;;;;;25.83;10.48;;;7.80;99.90;;;;;;5014367;28;20068;-83
2022/01/29 05:55:00;;;;;;;22.65;9.32;;;7.80;99.90;;;;;;5007052;28;20495;-82
2022/01/29 05:57:25;;;;;;;27.33;10.55;;;7.80;99.90;;;;;;5038722;28;20050;-82
2022/01/29 05:59:57;;;;;;;20.33;9.68;;;7.80;99.90;;;;;;5007481;28;20095;-83
2022/01/29 06:02:23;;;;;;;22.38;9.93;;;7.80;99.90;;;;;;5022349;28;20048;-83
2022/01/29 06:04:49;;;;;;;20.23;9.38;;;7.70;99.90;;;;;;5031106;28;20042;-81
2022/01/29 06:07:20;;;;;;;20.58;9.52;;;7.80;99.90;;;;;;5036829;28;20072;-83
2022/01/29 06:09:49;;;;;;;24.30;10.55;;;7.70;99.90;;;;;;5056239;28;20053;-82
2022/01/29 06:12:19;;;;;;;21.58;9.38;;;7.70;99.90;;;;;;5021280;28;20088;-82
2022/01/29 06:14:48;;;;;;;22.52;10.00;;;7.60;99.90;;;;;;4996977;28;20139;-82
2022/01/29 06:17:25;;;;;;;23.08;9.27;;;7.60;99.90;;;;;;5007891;28;20088;-83
2022/01/29 06:20:00;;;;;;;22.92;8.73;;;7.60;99.90;;;;;;5049152;28;20487;-82
2022/01/29 06:22:29;;;;;;;23.73;10.02;;;7.70;99.90;;;;;;5039765;28;20106;-84
2022/01/29 06:24:58;;;;;;;18.33;9.18;;;7.60;99.90;;;;;;5059305;28;20050;-84
2022/01/29 06:27:26;;;;;;;21.58;8.48;;;8.90;99.90;;;;;;5003975;28;20053;-81
2022/01/29 06:29:55;;;;;;;23.58;8.43;;;7.70;99.90;;;;;;5004348;28;20095;-81
2022/01/29 06:32:21;;;;;;;24.83;8.15;;;7.80;99.90;;;;;;5034526;28;20045;-81
2022/01/29 06:34:49;;;;;;;22.52;8.55;;;7.70;99.90;;;;;;5009997;28;20053;-81
2022/01/29 06:37:15;;;;;;;20.73;8.50;;;7.70;99.90;;;;;;5018814;28;20052;-81
2022/01/29 06:39:41;;;;;;;18.88;8.15;;;7.60;99.90;;;;;;5010207;28;20042;-81
2022/01/29 06:42:09;;;;;;;16.02;7.68;;;7.60;99.90;;;;;;5001716;28;20042;-81
2022/01/29 06:44:34;;;;;;;19.98;8.48;;;7.70;99.90;;;;;;4992158;28;20053;-81
2022/01/29 06:47:00;;;;;;;19.73;7.40;;;7.60;99.90;;;;;;4987987;28;20050;-82
2022/01/29 06:49:26;;;;;;;18.35;8.15;;;7.70;99.90;;;;;;5000808;28;20658;-81
2022/01/29 06:51:53;;;;;;;18.60;7.75;;;6.70;99.90;;;;;;5035301;28;20042;-81
2022/01/29 06:54:19;;;;;;;17.45;7.28;;;7.50;99.90;;;;;;5016450;28;20057;-81
2022/01/29 06:56:45;;;;;;;20.75;8.02;;;7.90;99.90;;;;;;5018278;28;20057;-81
2022/01/29 06:59:11;;;;;;;18.10;7.18;;;7.50;99.90;;;;;;5000499;28;20476;-81
2022/01/29 07:01:37;;;;;;;17.25;7.50;;;7.50;99.90;;;;;;5002103;28;20048;-82
2022/01/29 07:04:03;;;;;;;21.13;7.22;;;7.50;99.90;;;;;;4986572;28;20548;-82
2022/01/29 07:06:29;;;;;;;23.13;7.70;;;7.60;99.90;;;;;;5032824;28;20046;-81
2022/01/29 07:08:54;;;;;;;22.38;7.25;;;7.50;99.90;;;;;;4999892;28;20046;-82
2022/01/29 07:11:23;;;;;;;19.00;6.60;;;7.50;99.90;;;;;;5008397;28;20049;-83
2022/01/29 07:13:51;;;;;;;14.38;6.72;;;7.50;99.90;;;;;;5018054;28;20049;-83
2022/01/29 07:16:17;;;;;;;18.77;6.28;;;7.50;99.90;;;;;;5007988;28;20058;-82
2022/01/29 07:18:43;;;;;;;19.23;7.60;;;7.50;99.90;;;;;;5025713;28;20107;-82
2022/01/29 07:21:09;;;;;;;19.17;7.25;;;7.50;99.90;;;;;;5024725;28;20407;-82
2022/01/29 07:23:35;;;;;;;25.67;8.15;;;7.50;99.90;;;;;;5008744;28;20049;-81
2022/01/29 07:26:00;;;;;;;20.75;7.50;;;7.40;99.90;;;;;;4985725;28;20552;-82
2022/01/29 07:28:26;;;;;;;20.67;7.85;;;7.40;99.90;;;;;;5001431;28;20046;-83
2022/01/29 07:30:52;;;;;;;17.00;7.75;;;7.40;99.90;;;;;;5035017;28;20069;-82
2022/01/29 07:33:18;;;;;;;24.95;7.63;;;7.40;99.90;;;;;;4992916;28;20056;-81
2022/01/29 07:35:43;;;;;;;22.27;7.97;;;7.20;99.90;;;;;;5018376;28;20053;-82
2022/01/29 07:38:09;;;;;;;21.20;7.25;;;7.40;99.90;;;;;;4986846;28;20057;-83
2022/01/29 07:40:35;;;;;;;28.70;8.15;;;7.40;99.90;;;;;;5017000;28;20502;-83
2022/01/29 07:43:01;;;;;;;21.45;8.38;;;7.40;99.90;;;;;;5001528;28;20046;-82
2022/01/29 07:45:26;;;;;;;22.70;6.97;;;7.40;99.90;;;;;;5000683;28;20111;-82
2022/01/29 07:47:52;;;;;;;20.45;7.00;;;7.40;99.90;;;;;;5017742;28;20041;-83
2022/01/29 07:50:18;;;;;;;15.95;6.40;;;7.40;99.90;;;;;;4992234;28;20056;-83
2022/01/29 07:52:46;;;;;;;24.30;6.95;;;7.40;99.90;;;;;;5039561;28;20054;-83
2022/01/29 07:55:12;;;;;;;19.85;6.65;;;7.50;99.90;;;;;;5016806;28;20381;-84
2022/01/29 07:57:37;;;;;;;18.63;6.97;;;7.50;99.90;;;;;;5032441;28;20116;-84
2022/01/29 08:00:04;;;;;;;18.25;6.35;;;7.50;99.90;;;;;;5033096;28;20046;-83
2022/01/29 08:02:30;;;;;;;18.05;6.07;;;7.50;99.90;;;;;;5005466;28;20124;-82
2022/01/29 08:04:56;;;;;;;20.25;5.65;;;7.50;99.90;;;;;;4992672;28;20153;-83
2022/01/29 08:07:22;;;;;;;16.83;5.82;;;7.50;99.90;;;;;;5023787;28;20384;-83
2022/01/29 08:09:47;;;;;;;17.65;6.40;;;7.60;99.90;;;;;;5000761;28;20154;-84
2022/01/29 08:12:13;;;;;;;18.50;5.90;;;7.40;99.90;;;;;;4989803;28;20051;-82
2022/01/29 08:14:39;;;;;;;23.13;6.25;;;7.60;99.90;;;;;;4992257;28;20557;-82
2022/01/29 08:17:05;;;;;;;24.60;6.57;;;7.60;99.90;;;;;;5025846;28;20107;-81
2022/01/29 08:19:30;;;;;;;18.08;5.95;;;7.60;99.90;;;;;;4985041;28;20084;-81
2022/01/29 08:21:56;;;;;;;14.45;5.25;;;7.60;99.90;;;;;;5040920;28;20053;-82
2022/01/29 08:24:22;;;;;;;20.45;7.40;;;7.60;99.90;;;;;;4975262;28;20041;-81
2022/01/29 08:26:47;;;;;;;20.05;6.40;;;7.70;99.90;;;;;;5000977;28;20475;-83
2022/01/29 08:29:13;;;;;;;27.30;6.50;;;7.80;99.90;;;;;;5001567;28;20513;-82
2022/01/29 08:31:39;;;;;;;18.00;6.03;;;7.70;99.90;;;;;;5008728;28;20640;-81
2022/01/29 08:34:05;;;;;;;22.15;5.97;;;7.70;99.90;;;;;;5016094;28;20562;-83
2022/01/29 08:36:31;;;;;;;21.70;6.00;;;7.70;99.90;;;;;;5001044;28;20104;-83
2022/01/29 08:38:56;;;;;;;18.85;6.10;;;7.80;99.90;;;;;;4992604;28;20423;-84
2022/01/29 08:41:22;;;;;;;17.63;6.13;;;7.80;99.90;;;;;;5001500;28;20125;-84
2022/01/29 08:43:48;;;;;;;17.98;5.82;;;7.80;99.90;;;;;;5034671;28;20041;-84
2022/01/29 08:46:14;;;;;;;19.77;5.80;;;7.80;99.90;;;;;;4990622;28;20491;-86
2022/01/29 08:48:41;;;;;;;17.15;5.20;;;7.90;99.90;;;;;;5004281;28;20432;-85
2022/01/29 08:51:06;;;;;;;17.20;5.97;;;7.80;99.90;;;;;;5000103;28;20196;-85
2022/01/29 08:53:34;;;;;;;15.35;5.18;;;7.90;99.90;;;;;;5016351;28;20602;-85
2022/01/29 08:56:00;;;;;;;18.75;5.18;;;7.90;99.90;;;;;;5039899;28;20068;-85
2022/01/29 08:58:28;;;;;;;17.40;5.38;;;7.90;99.90;;;;;;5006249;28;20395;-85
2022/01/29 09:00:54;;;;;;;20.45;5.20;;;7.90;99.90;;;;;;4999985;28;20124;-81
2022/01/29 09:03:20;;;;;;;14.95;5.47;;;7.90;99.90;;;;;;5037070;28;20133;-85
2022/01/29 09:05:46;;;;;;;12.75;4.97;;;8.00;99.90;;;;;;5015379;28;20092;-80
2022/01/29 09:08:15;;;;;;;13.25;4.60;;;8.00;99.90;;;;;;5032058;28;20088;-80
2022/01/29 09:10:41;;;;;;;16.08;5.07;;;8.00;99.90;;;;;;5004831;28;20053;-80
2022/01/29 09:13:08;;;;;;;16.30;5.18;;;8.00;99.90;;;;;;5015969;28;20080;-80
2022/01/29 09:15:34;;;;;;;14.18;3.80;;;8.00;99.90;;;;;;5015291;28;20049;-80
2022/01/29 09:18:00;;;;;;;19.30;4.53;;;8.00;99.90;;;;;;5008626;28;20380;-80
2022/01/29 09:20:26;;;;;;;15.98;4.50;;;8.00;99.90;;;;;;5025931;28;20045;-81
2022/01/29 09:22:52;;;;;;;17.02;4.28;;;8.10;99.90;;;;;;5018578;28;20088;-80
2022/01/29 09:25:17;;;;;;;13.95;4.15;;;8.10;99.90;;;;;;5040489;28;20100;-81
2022/01/29 09:27:43;;;;;;;15.85;3.88;;;8.10;99.90;;;;;;5001835;28;20058;-80
2022/01/29 09:30:09;;;;;;;19.63;4.90;;;8.10;99.90;;;;;;5002567;28;20049;-80
2022/01/29 09:32:35;;;;;;;13.80;3.58;;;8.10;99.90;;;;;;5037476;28;20053;-80
2022/01/29 09:35:01;;;;;;;16.42;4.03;;;8.10;99.90;;;;;;5011657;28;20088;-80
2022/01/29 09:37:27;;;;;;;20.17;4.20;;;8.10;99.90;;;;;;5003030;28;20042;-81
2022/01/29 09:39:53;;;;;;;13.15;3.55;;;8.10;99.90;;;;;;5003832;28;20554;-80
2022/01/29 09:42:19;;;;;;;14.40;3.78;;;8.50;99.90;;;;;;4995193;28;20085;-80
2022/01/29 09:44:47;;;;;;;13.05;3.25;;;8.20;99.90;;;;;;5020071;28;20073;-81
2022/01/29 09:47:16;;;;;;;17.83;4.15;;;8.40;99.90;;;;;;5019944;28;20042;-81
2022/01/29 09:49:42;;;;;;;17.88;4.15;;;8.40;99.90;;;;;;5009044;28;20504;-81
2022/01/29 09:52:08;;;;;;;18.88;3.50;;;8.50;99.90;;;;;;5003558;28;20126;-80
2022/01/29 09:54:34;;;;;;;15.70;3.45;;;8.50;99.90;;;;;;5019157;28;20049;-80
2022/01/29 09:56:59;;;;;;;10.23;3.83;;;8.50;99.90;;;;;;5010085;28;21039;-80
2022/01/29 09:59:26;;;;;;;16.88;3.13;;;8.50;99.90;;;;;;4987511;28;20042;-80
2022/01/29 10:01:51;;;;;;;16.65;3.65;;;8.50;99.90;;;;;;5004049;28;20136;-80
2022/01/29 10:04:17;;;;;;;14.20;3.60;;;8.50;99.90;;;;;;5018596;28;20089;-80
2022/01/29 10:06:46;;;;;;;13.57;3.20;;;8.60;99.90;;;;;;5002611;28;20312;-80
2022/01/29 10:09:31;;;;;;;13.82;3.40;;;8.60;99.90;;;;;;5026728;28;20431;-81
2022/01/29 10:12:18;;;;;;;14.73;3.53;;;8.60;99.90;;;;;;5051106;28;20049;-80
2022/01/29 10:15:10;;;;;;;13.30;3.72;;;8.70;99.90;;;;;;5018838;28;20491;-80
2022/01/29 10:17:48;;;;;;;12.68;3.55;;;8.80;99.90;;;;;;5017810;28;20069;-79
2022/01/29 10:20:24;;;;;;;13.88;3.33;;;8.80;99.90;;;;;;5019237;28;20056;-80
2022/01/29 10:22:58;;;;;;;18.52;3.45;;;8.80;99.90;;;;;;5017860;28;20046;-79
2022/01/29 10:25:32;;;;;;;18.33;3.95;;;8.80;99.90;;;;;;5019386;28;20061;-80
2022/01/29 10:28:19;;;;;;;14.70;3.30;;;8.80;99.90;;;;;;5041717;28;20056;-80
2022/01/29 10:30:47;;;;;;;12.00;3.45;;;8.80;99.90;;;;;;5020157;28;20041;-81
2022/01/29 10:33:30;;;;;;;17.30;3.17;;;9.00;99.90;;;;;;5019880;28;20050;-82
2022/01/29 10:35:57;;;;;;;16.75;3.08;;;8.90;99.90;;;;;;5002130;28;20053;-80
2022/01/29 10:38:48;;;;;;;14.35;3.20;;;9.10;99.90;;;;;;5017362;28;20128;-80
2022/01/29 10:41:31;;;;;;;13.55;3.38;;;9.30;99.90;;;;;;5019746;28;20053;-81
2022/01/29 10:44:13;;;;;;;16.30;3.25;;;9.50;99.90;;;;;;4992418;28;20445;-81
2022/01/29 10:47:06;;;;;;;18.10;3.40;;;9.40;99.90;;;;;;5036348;28;20128;-81
2022/01/29 10:49:34;;;;;;;14.55;3.40;;;9.30;99.90;;;;;;5018153;28;20054;-81
2022/01/29 10:52:14;;;;;;;12.57;3.00;;;9.20;99.90;;;;;;5003873;28;20491;-81
2022/01/29 10:54:46;;;;;;;11.63;2.88;;;9.20;99.90;;;;;;5003839;28;20045;-81
2022/01/29 10:57:15;;;;;;;12.27;3.13;;;9.10;99.90;;;;;;5036390;28;20065;-80
2022/01/29 10:59:48;;;;;;;14.02;3.05;;;9.10;99.90;;;;;;5051749;28;20887;-81
2022/01/29 11:02:15;;;;;;;13.30;2.70;;;9.10;99.90;;;;;;5050511;28;21341;-80
2022/01/29 11:04:42;;;;;;;10.05;3.10;;;9.00;99.90;;;;;;5035102;28;20046;-80
2022/01/29 11:07:19;;;;;;;13.20;3.33;;;9.00;99.90;;;;;;5019200;28;20498;-81
2022/01/29 11:09:52;;;;;;;12.18;3.17;;;9.00;99.90;;;;;;5041768;28;20503;-81
2022/01/29 11:12:20;;;;;;;16.10;3.45;;;9.60;99.90;;;;;;5035159;28;20060;-82
2022/01/29 11:14:48;;;;;;;11.43;2.63;;;9.10;99.90;;;;;;5002949;28;20053;-81
2022/01/29 11:17:15;;;;;;;14.65;2.97;;;9.20;99.90;;;;;;5033442;28;20049;-81
2022/01/29 11:19:41;;;;;;;13.68;2.80;;;9.20;99.90;;;;;;5001110;28;20129;-81
2022/01/29 11:22:08;;;;;;;9.30;2.50;;;9.30;99.90;;;;;;5001421;28;20041;-80
2022/01/29 11:24:37;;;;;;;14.45;2.80;;;9.40;99.90;;;;;;4986871;28;20539;-81
2022/01/29 11:27:30;;;;;;;15.10;3.10;;;9.50;99.90;;;;;;5009014;28;20107;-82
2022/01/29 11:30:01;;;;;;;8.73;2.50;;;9.60;99.90;;;;;;5016063;28;20061;-82
2022/01/29 11:32:32;;;;;;;14.95;2.75;;;9.60;99.90;;;;;;5002408;28;20383;-82
2022/01/29 11:35:19;;;;;;;13.57;3.03;;;9.60;99.90;;;;;;5034670;28;20045;-84
2022/01/29 11:38:07;;;;;;;14.65;3.17;;;9.60;99.90;;;;;;5041493;28;20079;-83
2022/01/29 11:40:54;;;;;;;14.63;3.10;;;9.50;99.90;;;;;;5018738;28;20049;-83
2022/01/29 11:43:20;;;;;;;10.05;2.83;;;9.50;99.90;;;;;;5007050;28;20557;-81
2022/01/29 11:46:15;;;;;;;13.63;3.30;;;9.50;99.90;;;;;;5050629;28;20041;-82
2022/01/29 11:48:53;;;;;;;12.77;3.45;;;9.40;99.90;;;;;;5033883;28;20380;-81
2022/01/29 11:51:41;;;;;;;10.48;2.92;;;9.40;99.90;;;;;;5033662;28;20033;-80
2022/01/29 11:54:08;;;;;;;14.48;3.45;;;9.40;99.90;;;;;;5023246;28;20046;-79
2022/01/29 11:56:40;;;;;;;13.55;3.97;;;9.30;99.90;;;;;;5008410;28;20132;-79
2022/01/29 11:59:24;;;;;;;16.75;3.55;;;9.30;99.90;;;;;;5007586;28;20124;-79
2022/01/29 12:01:56;;;;;;;15.50;3.28;;;9.30;99.90;;;;;;5016632;28;20045;-79
2022/01/29 12:04:23;;;;;;;11.02;2.83;;;9.30;99.90;;;;;;5017137;28;20494;-81
2022/01/29 12:07:09;;;;;;;13.90;3.90;;;9.30;99.90;;;;;;5049663;28;20049;-82
2022/01/29 12:09:49;;;;;;;16.52;4.10;;;9.40;99.90;;;;;;5016678;28;20407;-80
2022/01/29 12:12:17;;;;;;;18.23;3.22;;;9.40;99.90;;;;;;5033634;28;22185;-80
2022/01/29 12:14:43;;;;;;;18.10;3.40;;;9.50;99.90;;;;;;5000655;28;20486;-80
2022/01/29 12:17:09;;;;;;;19.33;4.70;;;9.50;99.90;;;;;;5034987;28;20133;-79
2022/01/29 12:19:42;;;;;;;15.88;4.18;;;9.40;99.90;;;;;;5017616;28;20469;-79
2022/01/29 12:22:11;;;;;;;16.48;3.60;;;9.40;99.90;;;;;;5009290;28;20049;-79
2022/01/29 12:24:39;;;;;;;11.55;2.78;;;9.40;99.90;;;;;;5032806;28;20384;-80
2022/01/29 12:27:05;;;;;;;19.67;4.03;;;9.30;99.90;;;;;;5001496;28;20123;-80
2022/01/29 12:29:31;;;;;;;14.82;2.90;;;9.30;99.90;;;;;;4992041;28;20495;-80
2022/01/29 12:31:58;;;;;;;13.57;3.30;;;9.20;99.90;;;;;;5016177;28;20042;-79
2022/01/29 12:34:28;;;;;;;18.92;3.80;;;9.20;99.90;;;;;;5033708;28;20207;-80
2022/01/29 12:37:11;;;;;;;20.08;3.60;;;9.20;99.90;;;;;;5007553;28;20053;-80
2022/01/29 12:39:42;;;;;;;23.33;4.38;;;9.10;99.90;;;;;;5017119;28;20085;-79
2022/01/29 12:42:24;;;;;;;18.65;4.07;;;9.00;99.90;;;;;;5033656;28;20046;-79
2022/01/29 12:44:58;;;;;;;21.08;3.45;;;9.00;99.90;;;;;;5049916;28;20053;-80
2022/01/29 12:47:33;;;;;;;13.93;3.08;;;9.00;99.90;;;;;;5008868;28;20053;-79
2022/01/29 12:49:59;;;;;;;15.00;3.42;;;8.90;99.90;;;;;;5001208;28;20511;-80
2022/01/29 12:52:28;;;;;;;12.65;3.85;;;9.00;99.90;;;;;;4986929;28;20053;-80
2022/01/29 12:54:59;;;;;;;14.07;3.20;;;9.00;99.90;;;;;;5023260;28;20060;-79
2022/01/29 12:57:51;;;;;;;13.13;3.22;;;9.00;99.90;;;;;;5020936;28;20049;-80
2022/01/29 13:00:20;;;;;;;19.67;3.65;;;9.10;99.90;;;;;;5010553;28;20064;-80